createdAt,value
2022-08-24T13:17:10.994Z,997.6
2022-08-24T13:18:11.361Z,999.2
2022-08-24T13:19:10.693Z,999.2
2022-08-24T13:20:10.895Z,999.2
2022-08-24T13:21:11.207Z,999.2
2022-08-24T13:22:10.690Z,999.2
2022-08-24T13:23:11.154Z,999.2
2022-08-24T13:24:10.535Z,999.1
2022-08-24T13:25:10.532Z,999.1
2022-08-24T13:26:10.458Z,999.1
2022-08-24T13:27:10.710Z,999.1
2022-08-24T13:28:11.752Z,999.1
2022-08-24T13:29:11.067Z,999.0
2022-08-24T13:30:11.049Z,998.9
2022-08-24T13:31:12.156Z,999.0
2022-08-24T13:32:10.791Z,999.1
2022-08-24T13:33:11.268Z,999.1
2022-08-24T13:34:10.727Z,999.1
2022-08-24T13:35:10.993Z,999.1
2022-08-24T13:36:10.595Z,999.1
2022-08-24T13:37:10.956Z,999.1
2022-08-24T13:38:10.973Z,999.1
2022-08-24T13:39:11.410Z,999.2
2022-08-24T13:40:13.713Z,999.1
2022-08-24T13:41:10.960Z,999.1
2022-08-24T13:42:11.240Z,999.1
2022-08-24T13:43:10.709Z,999.2
2022-08-24T13:44:11.280Z,999.1
2022-08-24T13:45:11.163Z,999.1
2022-08-24T13:46:16.698Z,999.1
2022-08-24T13:47:11.303Z,999.1
2022-08-24T13:48:11.170Z,999.1
2022-08-24T13:49:10.609Z,999.1
2022-08-24T13:50:11.240Z,999.0
2022-08-24T13:51:10.963Z,999.1
2022-08-24T13:52:11.351Z,999.1
2022-08-24T13:53:10.787Z,999.1
2022-08-24T13:54:24.002Z,999.0
2022-08-24T13:55:10.929Z,999.0
2022-08-24T13:56:11.320Z,999.0
2022-08-24T13:57:11.494Z,999.0
2022-08-24T13:58:11.007Z,999.0
2022-08-24T13:59:13.775Z,999.0
2022-08-24T14:00:12.628Z,998.9
2022-08-24T14:01:10.840Z,998.9
2022-08-24T14:02:11.421Z,998.9
2022-08-24T14:03:11.258Z,998.8
2022-08-24T14:04:11.144Z,998.9
2022-08-24T14:05:11.195Z,998.9
2022-08-24T14:06:10.994Z,998.8
2022-08-24T14:07:10.580Z,998.9
2022-08-24T14:08:10.799Z,998.8
2022-08-24T14:09:11.955Z,998.9
2022-08-24T14:10:11.680Z,998.9
2022-08-24T14:11:11.487Z,998.9
2022-08-24T14:12:11.210Z,998.8
2022-08-24T14:13:10.602Z,998.8
2022-08-24T14:14:13.347Z,998.8
2022-08-24T14:15:11.792Z,998.9
2022-08-24T14:16:11.958Z,998.9
2022-08-24T14:17:22.981Z,998.9
2022-08-24T14:18:11.554Z,998.9
2022-08-24T14:19:10.946Z,998.8
2022-08-24T14:20:11.753Z,998.8
2022-08-24T14:21:11.148Z,998.8
2022-08-24T14:22:10.766Z,998.8
2022-08-24T14:23:11.193Z,998.8
2022-08-24T14:24:10.816Z,998.8
2022-08-24T14:25:11.389Z,998.8
2022-08-24T14:26:11.092Z,998.8
2022-08-24T14:27:10.577Z,998.8
2022-08-24T14:28:10.967Z,998.8
2022-08-24T14:29:11.330Z,998.8
2022-08-24T14:30:11.211Z,998.8
2022-08-24T14:31:10.565Z,998.8
2022-08-24T14:32:15.762Z,998.8
2022-08-24T14:33:11.540Z,998.8
2022-08-24T14:34:10.860Z,998.8
2022-08-24T14:35:11.690Z,998.8
2022-08-24T14:36:11.216Z,998.8
2022-08-24T14:37:11.098Z,998.8
2022-08-24T14:38:16.484Z,998.8
2022-08-24T14:39:10.666Z,998.8
2022-08-24T14:40:11.590Z,998.8
2022-08-24T14:41:10.967Z,998.8
2022-08-24T14:42:11.299Z,998.7
2022-08-24T14:43:10.693Z,998.7
2022-08-24T14:44:11.098Z,998.7
2022-08-24T14:45:11.035Z,998.7
2022-08-24T14:46:10.775Z,998.6
2022-08-24T14:47:12.918Z,998.6
2022-08-24T14:48:11.197Z,998.6
2022-08-24T14:49:10.806Z,998.6
2022-08-24T14:50:16.552Z,998.6
2022-08-24T14:51:10.791Z,998.5
2022-08-24T14:52:11.362Z,998.6
2022-08-24T14:53:10.905Z,998.6
2022-08-24T14:54:11.696Z,998.6
2022-08-24T14:55:11.175Z,998.6
2022-08-24T14:56:10.780Z,998.6
2022-08-24T14:57:11.225Z,998.6
2022-08-24T14:58:10.719Z,998.6
2022-08-24T14:59:11.265Z,998.6
2022-08-24T15:00:12.017Z,998.5
2022-08-24T15:01:11.895Z,998.6
2022-08-24T15:02:16.134Z,998.6
2022-08-24T15:03:11.146Z,998.6
2022-08-24T15:04:10.886Z,998.6
2022-08-24T15:05:11.804Z,998.6
2022-08-24T15:06:29.535Z,998.6
2022-08-24T15:07:11.205Z,998.6
2022-08-24T15:08:11.608Z,998.6
2022-08-24T15:09:11.514Z,998.6
2022-08-24T15:10:11.214Z,998.6
2022-08-24T15:11:10.883Z,998.6
2022-08-24T15:12:11.326Z,998.6
2022-08-24T15:13:10.697Z,998.5
2022-08-24T15:14:10.903Z,998.5
2022-08-24T15:15:11.397Z,998.6
2022-08-24T15:16:10.808Z,998.5
2022-08-24T15:17:11.630Z,998.5
2022-08-24T15:18:13.692Z,998.5
2022-08-24T15:19:11.013Z,998.5
2022-08-24T15:20:11.549Z,998.5
2022-08-24T15:21:11.014Z,998.5
2022-08-24T15:22:10.764Z,998.5
2022-08-24T15:23:11.659Z,998.5
2022-08-24T15:24:14.148Z,998.5
2022-08-24T15:25:10.604Z,998.5
2022-08-24T15:26:11.063Z,998.5
2022-08-24T15:27:10.488Z,998.4
2022-08-24T15:28:10.855Z,998.4
2022-08-24T15:29:11.470Z,998.4
2022-08-24T15:30:11.695Z,998.5
2022-08-24T15:31:25.231Z,998.5
2022-08-24T15:32:10.933Z,998.5
2022-08-24T15:33:11.585Z,998.4
2022-08-24T15:34:10.948Z,998.4
2022-08-24T15:35:12.024Z,998.4
2022-08-24T15:36:10.725Z,998.4
2022-08-24T15:37:11.065Z,998.4
2022-08-24T15:38:10.786Z,998.4
2022-08-24T15:39:11.233Z,998.4
2022-08-24T15:40:18.287Z,998.4
2022-08-24T15:41:11.012Z,998.3
2022-08-24T15:42:10.827Z,998.3
2022-08-24T15:43:11.094Z,998.4
2022-08-24T15:44:10.818Z,998.3
2022-08-24T15:45:11.487Z,998.3
2022-08-24T15:46:11.173Z,998.3
2022-08-24T15:47:10.562Z,998.3
2022-08-24T15:48:11.111Z,998.3
2022-08-24T15:49:10.678Z,998.3
2022-08-24T15:50:11.961Z,998.3
2022-08-24T15:51:11.315Z,998.2
2022-08-24T15:52:11.098Z,998.3
2022-08-24T15:53:11.023Z,998.3
2022-08-24T15:54:10.647Z,998.3
2022-08-24T15:55:11.428Z,998.3
2022-08-24T15:56:10.885Z,998.3
2022-08-24T15:57:11.155Z,998.3
2022-08-24T15:58:10.777Z,998.3
2022-08-24T15:59:11.358Z,998.3
2022-08-24T16:00:12.045Z,998.3
2022-08-24T16:01:11.073Z,998.3
2022-08-24T16:02:11.002Z,998.3
2022-08-24T16:03:10.792Z,998.3
2022-08-24T16:04:11.503Z,998.3
2022-08-24T16:05:11.019Z,998.3
2022-08-24T16:06:10.751Z,998.3
2022-08-24T16:07:11.148Z,998.2
2022-08-24T16:08:11.005Z,998.3
2022-08-24T16:09:10.744Z,998.2
2022-08-24T16:10:11.485Z,998.3
2022-08-24T16:11:10.924Z,998.3
2022-08-24T16:12:13.997Z,998.2
2022-08-24T16:13:10.676Z,998.2
2022-08-24T16:14:11.010Z,998.2
2022-08-24T16:15:10.986Z,998.2
2022-08-24T16:16:10.496Z,998.2
2022-08-24T16:17:11.321Z,998.2
2022-08-24T16:18:10.894Z,998.2
2022-08-24T16:19:12.625Z,998.2
2022-08-24T16:20:11.549Z,998.2
2022-08-24T16:21:11.858Z,998.2
2022-08-24T16:22:11.491Z,998.2
2022-08-24T16:23:11.018Z,998.3
2022-08-24T16:24:11.017Z,998.3
2022-08-24T16:25:11.225Z,998.2
2022-08-24T16:26:11.101Z,998.2
2022-08-24T16:27:11.038Z,998.2
2022-08-24T16:28:13.821Z,998.2
2022-08-24T16:29:12.465Z,998.2
2022-08-24T16:30:13.521Z,998.2
2022-08-24T16:31:11.773Z,998.2
2022-08-24T16:32:22.239Z,998.2
2022-08-24T16:33:11.791Z,998.2
2022-08-24T16:34:11.822Z,998.2
2022-08-24T16:35:11.435Z,998.2
2022-08-24T16:36:10.945Z,998.2
2022-08-24T16:37:11.293Z,998.2
2022-08-24T16:38:10.979Z,998.2
2022-08-24T16:39:11.711Z,998.2
2022-08-24T16:40:11.772Z,998.2
2022-08-24T16:41:11.199Z,998.2
2022-08-24T16:42:10.906Z,998.2
2022-08-24T16:43:11.217Z,998.2
2022-08-24T16:44:10.619Z,998.2
2022-08-24T16:45:12.057Z,998.2
2022-08-24T16:46:10.988Z,998.2
2022-08-24T16:47:10.869Z,998.2
2022-08-24T16:48:11.161Z,998.2
2022-08-24T16:49:16.548Z,998.2
2022-08-24T16:50:11.493Z,998.2
2022-08-24T16:51:11.172Z,998.2
2022-08-24T16:52:11.106Z,998.2
2022-08-24T16:53:11.191Z,998.2
2022-08-24T16:54:11.123Z,998.2
2022-08-24T16:55:11.361Z,998.2
2022-08-24T16:56:14.835Z,998.2
2022-08-24T16:57:11.067Z,998.2
2022-08-24T16:58:10.746Z,998.2
2022-08-24T16:59:11.504Z,998.2
2022-08-24T17:00:12.458Z,998.3
2022-08-24T17:01:11.683Z,998.2
2022-08-24T17:02:13.547Z,998.3
2022-08-24T17:03:16.407Z,998.2
2022-08-24T17:04:11.131Z,998.2
2022-08-24T17:05:10.844Z,998.2
2022-08-24T17:06:12.062Z,998.2
2022-08-24T17:07:10.745Z,998.2
2022-08-24T17:08:10.983Z,998.2
2022-08-24T17:09:12.913Z,998.2
2022-08-24T17:10:11.624Z,998.3
2022-08-24T17:11:11.288Z,998.3
2022-08-24T17:12:11.002Z,998.3
2022-08-24T17:13:10.734Z,998.3
2022-08-24T17:14:11.118Z,998.3
2022-08-24T17:15:11.239Z,998.3
2022-08-24T17:16:11.136Z,998.3
2022-08-24T17:17:11.024Z,998.3
2022-08-24T17:18:10.940Z,998.3
2022-08-24T17:19:11.470Z,998.3
2022-08-24T17:20:09.699Z,998.3
2022-08-24T17:28:11.360Z,998.4
2022-08-24T17:49:11.927Z,998.5
2022-08-24T17:50:12.251Z,998.5
2022-08-24T17:51:11.116Z,998.5
2022-08-24T17:52:11.041Z,998.5
2022-08-24T17:53:11.175Z,998.5
2022-08-24T17:54:10.722Z,998.5
2022-08-24T17:55:11.261Z,998.5
2022-08-24T17:56:10.476Z,998.5
2022-08-24T17:57:11.153Z,998.5
2022-08-24T17:58:10.711Z,998.5
2022-08-24T17:59:11.222Z,998.5
2022-08-24T18:00:25.345Z,998.5
2022-08-24T18:01:10.903Z,998.5
2022-08-24T18:02:11.358Z,998.5
2022-08-24T18:03:15.983Z,998.5
2022-08-24T18:04:11.217Z,998.5
2022-08-24T18:05:10.973Z,998.5
2022-08-24T18:06:10.894Z,998.5
2022-08-24T18:07:25.678Z,998.5
2022-08-24T18:08:10.825Z,998.5
2022-08-24T18:09:11.107Z,998.5
2022-08-24T18:10:10.837Z,998.6
2022-08-24T18:11:11.839Z,998.6
2022-08-24T18:12:11.611Z,998.6
2022-08-24T18:13:11.156Z,998.6
2022-08-24T18:14:10.425Z,998.6
2022-08-24T18:15:11.628Z,998.6
2022-08-24T18:16:11.066Z,998.6
2022-08-24T18:17:10.658Z,998.6
2022-08-24T18:18:12.686Z,998.6
2022-08-24T18:19:11.129Z,998.6
2022-08-24T18:20:10.605Z,998.6
2022-08-24T18:21:10.925Z,998.6
2022-08-24T18:22:11.584Z,998.7
2022-08-24T18:23:21.150Z,998.7
2022-08-24T18:24:10.712Z,998.6
2022-08-24T18:25:17.176Z,998.7
2022-08-24T18:26:11.031Z,998.7
2022-08-24T18:27:14.034Z,998.7
2022-08-24T18:28:11.013Z,998.7
2022-08-24T18:29:10.751Z,998.7
2022-08-24T18:30:12.055Z,998.7
2022-08-24T18:31:11.545Z,998.7
2022-08-24T18:32:11.093Z,998.7
2022-08-24T18:33:10.606Z,998.7
2022-08-24T18:34:10.752Z,998.7
2022-08-24T18:35:11.186Z,998.7
2022-08-24T18:36:10.927Z,998.7
2022-08-24T18:37:11.500Z,998.7
2022-08-24T18:38:11.109Z,998.7
2022-08-24T18:39:11.057Z,998.7
2022-08-24T18:40:11.801Z,998.7
2022-08-24T18:41:11.297Z,998.7
2022-08-24T18:42:10.777Z,998.7
2022-08-24T18:43:11.055Z,998.7
2022-08-24T18:44:15.597Z,998.8
2022-08-24T18:45:11.235Z,998.8
2022-08-24T18:46:11.071Z,998.8
2022-08-24T18:47:11.154Z,998.8
2022-08-24T18:48:10.635Z,998.8
2022-08-24T18:49:11.197Z,998.8
2022-08-24T18:50:12.067Z,998.8
2022-08-24T18:51:10.887Z,998.8
2022-08-24T18:52:11.762Z,998.8
2022-08-24T18:53:11.076Z,998.8
2022-08-24T18:54:10.990Z,998.8
2022-08-24T18:55:11.043Z,998.8
2022-08-24T18:56:16.062Z,998.8
2022-08-24T18:57:10.886Z,998.8
2022-08-24T18:58:11.238Z,998.8
2022-08-24T18:59:10.609Z,998.9
2022-08-24T19:00:12.901Z,998.9
2022-08-24T19:01:11.607Z,998.8
2022-08-24T19:02:11.713Z,998.8
2022-08-24T19:03:11.227Z,998.8
2022-08-24T19:04:17.770Z,998.9
2022-08-24T19:05:10.903Z,998.9
2022-08-24T19:06:11.187Z,998.9
2022-08-24T19:07:11.116Z,998.9
2022-08-24T19:08:10.916Z,998.9
2022-08-24T19:09:11.397Z,998.9
2022-08-24T19:10:10.965Z,998.9
2022-08-24T19:11:11.305Z,998.9
2022-08-24T19:12:10.590Z,998.9
2022-08-24T19:13:10.924Z,998.9
2022-08-24T19:14:11.147Z,998.9
2022-08-24T19:15:39.365Z,998.9
2022-08-24T19:16:10.926Z,998.9
2022-08-24T19:17:11.704Z,998.9
2022-08-24T19:18:10.905Z,998.9
2022-08-24T19:19:11.217Z,998.9
2022-08-24T19:20:10.722Z,998.9
2022-08-24T19:21:11.063Z,998.9
2022-08-24T19:22:10.696Z,999.0
2022-08-24T19:23:11.127Z,998.9
2022-08-24T19:24:11.074Z,998.9
2022-08-24T19:25:10.824Z,999.0
2022-08-24T19:26:10.969Z,999.0
2022-08-24T19:27:11.167Z,999.0
2022-08-24T19:28:10.961Z,999.0
2022-08-24T19:29:11.259Z,999.0
2022-08-24T19:30:11.213Z,999.0
2022-08-24T19:31:11.143Z,999.0
2022-08-24T19:32:25.318Z,999.0
2022-08-24T19:33:16.803Z,999.0
2022-08-24T19:34:10.828Z,999.0
2022-08-24T19:35:11.364Z,999.0
2022-08-24T19:36:10.949Z,999.0
2022-08-24T19:37:11.158Z,999.0
2022-08-24T19:38:11.072Z,999.0
2022-08-24T19:39:11.667Z,999.0
2022-08-24T19:40:11.721Z,999.0
2022-08-24T19:41:17.561Z,999.0
2022-08-24T19:42:14.711Z,999.0
2022-08-24T19:43:12.173Z,999.0
2022-08-24T19:44:11.071Z,999.0
2022-08-24T19:45:11.761Z,999.0
2022-08-24T19:46:10.923Z,999.0
2022-08-24T19:47:11.695Z,999.0
2022-08-24T19:48:11.058Z,999.0
2022-08-24T19:49:10.877Z,999.0
2022-08-24T19:50:11.201Z,999.0
2022-08-24T19:51:10.984Z,999.0
2022-08-24T19:52:10.604Z,999.0
2022-08-24T19:53:11.238Z,999.0
2022-08-24T19:54:11.566Z,999.0
2022-08-24T19:55:11.840Z,999.0
2022-08-24T19:56:12.035Z,999.0
2022-08-24T19:57:11.116Z,999.0
2022-08-24T19:58:11.448Z,999.0
2022-08-24T19:59:12.309Z,999.0
2022-08-24T20:00:13.331Z,999.0
2022-08-24T20:01:12.283Z,999.0
2022-08-24T20:02:12.327Z,999.0
2022-08-24T20:03:13.256Z,999.0
2022-08-24T20:04:12.135Z,999.0
2022-08-24T20:05:11.923Z,999.0
2022-08-24T20:06:12.575Z,999.0
2022-08-24T20:07:11.344Z,999.0
2022-08-24T20:08:11.227Z,999.0
2022-08-24T20:09:11.828Z,999.0
2022-08-24T20:10:16.878Z,999.0
2022-08-24T20:11:11.955Z,999.0
2022-08-24T20:12:12.083Z,999.0
2022-08-24T20:13:11.417Z,999.0
2022-08-24T20:14:11.621Z,999.0
2022-08-24T20:15:12.340Z,999.0
2022-08-24T20:16:14.579Z,999.0
2022-08-24T20:17:12.606Z,999.0
2022-08-24T20:18:12.069Z,999.0
2022-08-24T20:19:11.263Z,999.0
2022-08-24T20:20:11.580Z,999.0
2022-08-24T20:21:12.340Z,999.0
2022-08-24T20:23:12.075Z,999.0
2022-08-24T20:24:11.866Z,999.0
2022-08-24T20:25:12.828Z,999.0
2022-08-24T20:26:12.777Z,999.0
2022-08-24T20:27:12.099Z,999.0
2022-08-24T20:28:37.377Z,999.0
2022-08-24T20:29:12.189Z,999.0
2022-08-24T20:30:12.389Z,999.0
2022-08-24T20:31:11.704Z,999.0
2022-08-24T20:32:13.114Z,999.0
2022-08-24T20:33:11.768Z,999.0
2022-08-24T20:34:11.912Z,999.0
2022-08-24T20:35:12.022Z,998.9
2022-08-24T20:36:11.843Z,999.0
2022-08-24T20:37:11.173Z,999.0
2022-08-24T20:38:11.650Z,999.0
2022-08-24T20:39:11.807Z,999.0
2022-08-24T20:40:12.555Z,999.0
2022-08-24T20:41:11.637Z,999.0
2022-08-24T20:43:12.628Z,999.0
2022-08-24T20:44:12.018Z,999.0
2022-08-24T20:45:11.671Z,999.0
2022-08-24T20:46:11.851Z,999.0
2022-08-24T20:47:12.057Z,999.0
2022-08-24T20:48:10.992Z,999.0
2022-08-24T20:49:15.318Z,999.0
2022-08-24T20:50:12.056Z,999.0
2022-08-24T20:51:11.489Z,999.0
2022-08-24T20:52:11.682Z,999.0
2022-08-24T20:53:11.913Z,999.0
2022-08-24T20:54:11.945Z,999.0
2022-08-24T20:55:12.329Z,999.0
2022-08-24T20:56:12.300Z,999.0
2022-08-24T20:57:11.674Z,999.0
2022-08-24T20:58:11.491Z,999.0
2022-08-24T20:59:11.889Z,999.0
2022-08-24T21:00:13.242Z,999.0
2022-08-24T21:01:11.886Z,999.0
2022-08-24T21:02:11.684Z,999.0
2022-08-24T21:03:12.025Z,999.0
2022-08-24T21:04:11.666Z,999.0
2022-08-24T21:05:11.925Z,999.0
2022-08-24T21:06:12.344Z,999.0
2022-08-24T21:07:11.522Z,999.0
2022-08-24T21:08:11.913Z,999.0
2022-08-24T21:09:18.551Z,999.0
2022-08-24T21:10:12.085Z,999.0
2022-08-24T21:11:11.368Z,999.0
2022-08-24T21:12:11.422Z,999.0
2022-08-24T21:13:11.957Z,999.0
2022-08-24T21:14:11.887Z,999.0
2022-08-24T21:15:12.844Z,999.0
2022-08-24T21:16:12.166Z,999.0
2022-08-24T21:17:11.617Z,999.0
2022-08-24T21:18:12.103Z,999.0
2022-08-24T21:19:11.522Z,999.0
2022-08-24T21:20:12.030Z,999.0
2022-08-24T21:21:11.425Z,999.0
2022-08-24T21:22:11.648Z,999.0
2022-08-24T21:23:11.903Z,999.0
2022-08-24T21:24:12.012Z,999.0
2022-08-24T21:25:11.424Z,999.0
2022-08-24T21:26:11.694Z,999.0
2022-08-24T21:27:12.076Z,999.0
2022-08-24T21:28:13.945Z,999.0
2022-08-24T21:29:11.358Z,999.0
2022-08-24T21:30:11.999Z,999.0
2022-08-24T21:31:11.674Z,999.0
2022-08-24T21:32:12.149Z,999.0
2022-08-24T21:33:11.403Z,999.0
2022-08-24T21:34:11.559Z,999.1
2022-08-24T21:35:15.348Z,999.1
2022-08-24T21:36:11.955Z,999.1
2022-08-24T21:37:13.408Z,999.1
2022-08-24T21:38:11.834Z,999.1
2022-08-24T21:39:15.049Z,999.1
2022-08-24T21:40:11.675Z,999.1
2022-08-24T21:41:11.759Z,999.1
2022-08-24T21:42:11.953Z,999.2
2022-08-24T21:43:18.892Z,999.2
2022-08-24T21:44:11.723Z,999.2
2022-08-24T21:45:12.041Z,999.2
2022-08-24T21:46:11.348Z,999.2
2022-08-24T21:47:11.548Z,999.2
2022-08-24T21:48:11.937Z,999.2
2022-08-24T21:49:16.011Z,999.2
2022-08-24T21:50:11.075Z,999.2
2022-08-24T21:51:11.417Z,999.2
2022-08-24T21:52:11.765Z,999.3
2022-08-24T21:53:12.404Z,999.3
2022-08-24T21:54:11.600Z,999.3
2022-08-24T21:55:18.339Z,999.3
2022-08-24T21:56:11.829Z,999.3
2022-08-24T21:57:11.686Z,999.3
2022-08-24T21:58:11.444Z,999.3
2022-08-24T21:59:11.352Z,999.4
2022-08-24T22:00:13.128Z,999.4
2022-08-24T22:01:11.526Z,999.4
2022-08-24T22:02:15.867Z,999.4
2022-08-24T22:03:11.953Z,999.4
2022-08-24T22:04:11.400Z,999.4
2022-08-24T22:05:11.903Z,999.4
2022-08-24T22:06:11.886Z,999.4
2022-08-24T22:07:12.278Z,999.4
2022-08-24T22:08:11.677Z,999.5
2022-08-24T22:09:11.919Z,999.4
2022-08-24T22:10:12.364Z,999.4
2022-08-24T22:11:11.548Z,999.4
2022-08-24T22:12:12.282Z,999.4
2022-08-24T22:13:12.069Z,999.4
2022-08-24T22:14:11.565Z,999.4
2022-08-24T22:15:12.655Z,999.4
2022-08-24T22:16:12.431Z,999.4
2022-08-24T22:17:11.789Z,999.4
2022-08-24T22:18:11.735Z,999.4
2022-08-24T22:19:11.883Z,999.4
2022-08-24T22:20:25.256Z,999.4
2022-08-24T22:21:11.620Z,999.4
2022-08-24T22:22:11.852Z,999.4
2022-08-24T22:23:11.760Z,999.4
2022-08-24T22:24:12.049Z,999.4
2022-08-24T22:25:11.161Z,999.4
2022-08-24T22:26:11.307Z,999.4
2022-08-24T22:27:11.634Z,999.4
2022-08-24T22:28:11.679Z,999.4
2022-08-24T22:29:11.567Z,999.4
2022-08-24T22:30:12.483Z,999.4
2022-08-24T22:31:11.734Z,999.4
2022-08-24T22:32:12.336Z,999.4
2022-08-24T22:33:11.876Z,999.4
2022-08-24T22:34:12.611Z,999.4
2022-08-24T22:35:11.807Z,999.5
2022-08-24T22:36:12.252Z,999.5
2022-08-24T22:37:11.209Z,999.5
2022-08-24T22:38:11.503Z,999.5
2022-08-24T22:39:11.820Z,999.5
2022-08-24T22:40:19.017Z,999.5
2022-08-24T22:41:11.489Z,999.5
2022-08-24T22:42:11.674Z,999.5
2022-08-24T22:43:11.700Z,999.5
2022-08-24T22:44:12.245Z,999.5
2022-08-24T22:45:11.823Z,999.5
2022-08-24T22:46:11.717Z,999.5
2022-08-24T22:47:19.091Z,999.5
2022-08-24T22:48:12.269Z,999.5
2022-08-24T22:49:11.145Z,999.5
2022-08-24T22:50:11.498Z,999.5
2022-08-24T22:51:11.404Z,999.5
2022-08-24T22:52:11.392Z,999.5
2022-08-24T22:53:11.749Z,999.5
2022-08-24T22:54:11.955Z,999.5
2022-08-24T22:55:12.177Z,999.5
2022-08-24T22:56:11.275Z,999.5
2022-08-24T22:57:11.325Z,999.5
2022-08-24T22:58:11.101Z,999.5
2022-08-24T22:59:11.162Z,999.5
2022-08-24T23:00:15.002Z,999.5
2022-08-24T23:01:11.515Z,999.5
2022-08-24T23:02:11.992Z,999.5
2022-08-24T23:03:11.227Z,999.5
2022-08-24T23:04:11.870Z,999.5
2022-08-24T23:05:11.975Z,999.5
2022-08-24T23:06:12.243Z,999.5
2022-08-24T23:07:11.254Z,999.5
2022-08-24T23:08:10.913Z,999.5
2022-08-24T23:09:11.874Z,999.5
2022-08-24T23:10:12.241Z,999.5
2022-08-24T23:11:11.225Z,999.5
2022-08-24T23:12:11.046Z,999.5
2022-08-24T23:13:10.905Z,999.5
2022-08-24T23:14:12.046Z,999.5
2022-08-24T23:15:11.701Z,999.5
2022-08-24T23:16:11.752Z,999.5
2022-08-24T23:17:11.860Z,999.5
2022-08-24T23:18:11.517Z,999.5
2022-08-24T23:19:12.508Z,999.5
2022-08-24T23:20:11.379Z,999.5
2022-08-24T23:21:11.985Z,999.5
2022-08-24T23:22:11.933Z,999.5
2022-08-24T23:23:11.725Z,999.5
2022-08-24T23:24:11.874Z,999.5
2022-08-24T23:25:11.637Z,999.5
2022-08-24T23:26:18.239Z,999.5
2022-08-24T23:27:11.238Z,999.5
2022-08-24T23:28:11.004Z,999.5
2022-08-24T23:29:10.894Z,999.5
2022-08-24T23:30:12.532Z,999.5
2022-08-24T23:31:11.554Z,999.6
2022-08-24T23:32:11.366Z,999.6
2022-08-24T23:33:11.222Z,999.5
2022-08-24T23:34:10.909Z,999.5
2022-08-24T23:35:12.052Z,999.5
2022-08-24T23:36:11.030Z,999.5
2022-08-24T23:37:11.039Z,999.5
2022-08-24T23:38:10.993Z,999.5
2022-08-24T23:39:11.065Z,999.5
2022-08-24T23:40:11.359Z,999.5
2022-08-24T23:41:11.197Z,999.5
2022-08-24T23:42:11.325Z,999.5
2022-08-24T23:43:11.142Z,999.5
2022-08-24T23:44:11.428Z,999.5
2022-08-24T23:45:15.728Z,999.5
2022-08-24T23:46:11.897Z,999.5
2022-08-24T23:47:11.642Z,999.5
2022-08-24T23:48:11.299Z,999.5
2022-08-24T23:49:11.124Z,999.5
2022-08-24T23:50:15.082Z,999.4
2022-08-24T23:51:11.089Z,999.4
2022-08-24T23:52:26.233Z,999.4
2022-08-24T23:53:11.074Z,999.4
2022-08-24T23:54:11.163Z,999.4
2022-08-24T23:55:25.582Z,999.4
2022-08-24T23:56:11.157Z,999.4
2022-08-24T23:57:11.101Z,999.4
2022-08-24T23:58:10.881Z,999.4
2022-08-24T23:59:11.761Z,999.4
